createdAt,value
2022-11-27T00:01:24.519Z,75.87
2022-11-27T00:03:53.808Z,74.15
2022-11-27T00:06:23.219Z,68.43
2022-11-27T00:08:51.091Z,68.03
2022-11-27T00:11:21.397Z,80.62
2022-11-27T00:13:49.863Z,72.35
2022-11-27T00:16:18.489Z,64.68
2022-11-27T00:18:46.655Z,67.27
2022-11-27T00:21:16.439Z,69.03
2022-11-27T00:23:44.365Z,73.03
2022-11-27T00:26:14.420Z,58.53
2022-11-27T00:28:42.292Z,64.22
2022-11-27T00:31:16.168Z,60.77
2022-11-27T00:33:44.485Z,60.58
2022-11-27T00:36:13.147Z,57.78
2022-11-27T00:38:40.664Z,59.95
2022-11-27T00:41:28.749Z,60.65
2022-11-27T00:43:56.648Z,57.90
2022-11-27T00:46:28.961Z,62.45
2022-11-27T00:48:58.346Z,57.33
2022-11-27T00:51:27.176Z,55.60
2022-11-27T00:53:55.156Z,54.40
2022-11-27T00:56:28.303Z,49.17
2022-11-27T00:58:56.685Z,52.58
2022-11-27T01:01:30.085Z,49.33
2022-11-27T01:03:58.735Z,50.40
2022-11-27T01:06:27.144Z,50.53
2022-11-27T01:08:54.613Z,50.50
2022-11-27T01:11:29.146Z,49.20
2022-11-27T01:13:59.312Z,56.70
2022-11-27T01:16:28.229Z,54.28
2022-11-27T01:19:00.086Z,54.25
2022-11-27T01:21:31.084Z,53.40
2022-11-27T01:23:59.298Z,51.00
2022-11-27T01:26:27.431Z,57.85
2022-11-27T01:28:56.598Z,54.72
2022-11-27T01:31:27.811Z,49.58
2022-11-27T01:33:58.684Z,53.03
2022-11-27T01:36:26.655Z,46.75
2022-11-27T01:38:54.581Z,48.08
2022-11-27T01:41:31.118Z,49.53
2022-11-27T01:44:01.182Z,46.17
2022-11-27T01:46:32.360Z,55.07
2022-11-27T01:49:12.031Z,52.30
2022-11-27T01:51:56.885Z,48.20
2022-11-27T01:54:27.572Z,52.03
2022-11-27T01:56:57.072Z,50.30
2022-11-27T01:59:24.996Z,51.17
2022-11-27T02:01:52.597Z,46.97
2022-11-27T02:04:20.389Z,44.97
2022-11-27T02:06:48.169Z,53.70
2022-11-27T02:09:15.864Z,52.72
2022-11-27T02:11:55.867Z,41.93
2022-11-27T02:14:26.548Z,49.40
2022-11-27T02:16:56.936Z,53.47
2022-11-27T02:19:49.149Z,48.25
2022-11-27T02:22:54.082Z,44.70
2022-11-27T02:25:32.099Z,45.97
2022-11-27T02:28:24.055Z,47.22
2022-11-27T02:31:06.130Z,41.30
2022-11-27T02:33:35.456Z,43.72
2022-11-27T02:36:10.139Z,47.42
2022-11-27T02:39:15.004Z,46.23
2022-11-27T02:41:49.473Z,50.55
2022-11-27T02:44:17.952Z,48.87
2022-11-27T02:46:46.964Z,50.35
2022-11-27T02:49:17.162Z,42.55
2022-11-27T02:51:53.617Z,46.40
2022-11-27T02:54:25.317Z,46.45
2022-11-27T02:56:54.038Z,42.47
2022-11-27T02:59:24.265Z,43.13
2022-11-27T03:01:55.875Z,41.63
2022-11-27T03:04:28.601Z,44.00
2022-11-27T03:07:02.378Z,42.10
2022-11-27T03:09:40.132Z,48.85
2022-11-27T03:12:09.138Z,38.78
2022-11-27T03:14:38.588Z,40.90
2022-11-27T03:17:16.346Z,42.33
2022-11-27T03:19:58.285Z,42.53
2022-11-27T03:22:27.962Z,36.38
2022-11-27T03:24:55.796Z,39.35
2022-11-27T03:27:31.059Z,42.60
2022-11-27T03:30:02.401Z,36.47
2022-11-27T03:32:31.204Z,39.55
2022-11-27T03:34:59.024Z,39.38
2022-11-27T03:37:26.913Z,39.03
2022-11-27T03:39:54.572Z,41.33
2022-11-27T03:42:30.616Z,37.33
2022-11-27T03:45:25.785Z,39.70
2022-11-27T03:48:21.267Z,42.65
2022-11-27T03:51:10.751Z,40.40
2022-11-27T03:53:54.150Z,43.05
2022-11-27T03:56:45.589Z,43.60
2022-11-27T03:59:36.157Z,44.60
2022-11-27T04:02:03.733Z,41.28
2022-11-27T04:04:31.464Z,50.85
2022-11-27T04:06:58.991Z,39.05
2022-11-27T04:09:26.520Z,42.27
2022-11-27T04:11:54.301Z,41.37
2022-11-27T04:14:21.727Z,36.72
2022-11-27T04:16:49.246Z,38.25
2022-11-27T04:19:17.077Z,44.25
2022-11-27T04:21:44.530Z,41.43
2022-11-27T04:24:11.983Z,40.50
2022-11-27T04:26:39.774Z,41.95
2022-11-27T04:29:07.262Z,41.00
2022-11-27T04:31:34.834Z,40.10
2022-11-27T04:34:02.547Z,39.07
2022-11-27T04:36:32.565Z,41.97
2022-11-27T04:39:03.902Z,38.58
2022-11-27T04:41:31.595Z,40.85
2022-11-27T04:43:59.049Z,36.63
2022-11-27T04:46:26.903Z,37.33
2022-11-27T04:48:54.727Z,39.80
2022-11-27T04:51:22.231Z,32.83
2022-11-27T04:53:49.985Z,36.75
2022-11-27T04:56:17.555Z,35.83
2022-11-27T04:58:44.983Z,40.13
2022-11-27T05:01:13.162Z,42.30
2022-11-27T05:03:40.803Z,39.72
2022-11-27T05:06:08.196Z,39.03
2022-11-27T05:08:35.907Z,36.58
2022-11-27T05:11:10.202Z,41.27
2022-11-27T05:13:37.996Z,45.47
2022-11-27T05:16:06.237Z,42.78
2022-11-27T05:18:33.916Z,44.47
2022-11-27T05:21:04.480Z,49.10
2022-11-27T05:23:32.532Z,46.47
2022-11-27T05:26:00.398Z,49.08
2022-11-27T05:28:28.286Z,49.60
2022-11-27T05:30:55.839Z,48.55
2022-11-27T05:33:23.382Z,46.67
2022-11-27T05:35:51.343Z,48.23
2022-11-27T05:38:19.190Z,45.67
2022-11-27T05:40:46.732Z,48.50
2022-11-27T05:43:14.475Z,49.47
2022-11-27T05:45:42.298Z,56.35
2022-11-27T05:48:09.859Z,50.20
2022-11-27T05:50:37.628Z,51.95
2022-11-27T05:53:05.304Z,51.92
2022-11-27T05:55:32.841Z,57.55
2022-11-27T05:58:00.615Z,54.58
2022-11-27T06:00:28.193Z,55.77
2022-11-27T06:02:56.697Z,50.45
2022-11-27T06:05:24.360Z,56.53
2022-11-27T06:07:51.985Z,52.85
2022-11-27T06:10:19.871Z,53.65
2022-11-27T06:12:47.297Z,48.67
2022-11-27T06:15:14.887Z,44.30
2022-11-27T06:17:42.681Z,46.47
2022-11-27T06:20:11.274Z,56.17
2022-11-27T06:22:40.483Z,48.25
2022-11-27T06:25:08.648Z,46.43
2022-11-27T06:27:36.561Z,55.30
2022-11-27T06:30:06.141Z,47.33
2022-11-27T06:32:34.386Z,48.55
2022-11-27T06:35:01.859Z,50.58
2022-11-27T06:37:29.489Z,47.43
2022-11-27T06:39:58.901Z,56.80
2022-11-27T06:42:30.041Z,55.72
2022-11-27T06:44:58.144Z,91.97
2022-11-27T06:47:25.746Z,48.10
2022-11-27T06:49:53.205Z,43.53
2022-11-27T06:52:21.161Z,38.10
2022-11-27T06:54:48.784Z,41.17
2022-11-27T06:57:16.539Z,53.58
2022-11-27T06:59:44.460Z,53.70
2022-11-27T07:02:14.649Z,45.57
2022-11-27T07:04:42.438Z,45.53
2022-11-27T07:07:10.586Z,50.40
2022-11-27T07:09:38.717Z,52.50
2022-11-27T07:12:06.371Z,50.85
2022-11-27T07:14:34.214Z,48.13
2022-11-27T07:17:01.810Z,49.92
2022-11-27T07:19:29.236Z,46.33
2022-11-27T07:21:56.929Z,53.28
2022-11-27T07:24:24.765Z,54.90
2022-11-27T07:26:52.257Z,54.77
2022-11-27T07:29:20.038Z,57.17
2022-11-27T07:31:48.057Z,55.00
2022-11-27T07:34:21.239Z,70.55
2022-11-27T07:36:49.549Z,48.38
2022-11-27T07:39:25.174Z,42.27
2022-11-27T07:42:16.749Z,54.83
2022-11-27T07:44:49.288Z,48.53
2022-11-27T07:47:17.072Z,38.20
2022-11-27T07:49:46.701Z,47.10
2022-11-27T07:52:14.246Z,47.77
2022-11-27T07:54:42.411Z,44.38
2022-11-27T07:57:10.038Z,37.30
2022-11-27T07:59:37.678Z,45.15
2022-11-27T08:02:05.431Z,44.60
2022-11-27T08:04:33.312Z,48.13
2022-11-27T08:07:00.959Z,45.30
2022-11-27T08:09:29.969Z,46.53
2022-11-27T08:11:57.816Z,47.28
2022-11-27T08:14:25.269Z,48.67
2022-11-27T08:16:52.831Z,46.70
2022-11-27T08:19:20.699Z,46.67
2022-11-27T08:21:48.150Z,39.17
2022-11-27T08:24:15.753Z,43.97
2022-11-27T08:26:43.576Z,46.20
2022-11-27T08:29:12.066Z,42.93
2022-11-27T08:31:39.915Z,40.42
2022-11-27T08:34:07.945Z,41.92
2022-11-27T08:36:35.459Z,37.92
2022-11-27T08:39:03.011Z,46.63
2022-11-27T08:41:30.775Z,49.37
2022-11-27T08:43:58.636Z,43.35
2022-11-27T08:46:26.192Z,43.47
2022-11-27T08:48:54.041Z,51.30
2022-11-27T08:51:21.506Z,53.42
2022-11-27T08:53:49.801Z,45.90
2022-11-27T08:56:23.334Z,54.67
2022-11-27T08:58:52.637Z,61.55
2022-11-27T09:01:25.694Z,60.15
2022-11-27T09:03:53.687Z,52.03
2022-11-27T09:06:24.451Z,55.20
2022-11-27T09:08:52.215Z,55.97
2022-11-27T09:11:20.397Z,49.55
2022-11-27T09:13:48.700Z,62.85
2022-11-27T09:16:17.921Z,55.33
2022-11-27T09:18:47.202Z,54.80
2022-11-27T09:21:16.418Z,52.55
2022-11-27T09:23:44.369Z,46.47
2022-11-27T09:26:14.532Z,55.30
2022-11-27T09:28:43.983Z,57.92
2022-11-27T09:31:13.823Z,54.00
2022-11-27T09:33:42.158Z,56.88
2022-11-27T09:36:16.587Z,59.00
2022-11-27T09:38:44.451Z,53.50
2022-11-27T09:41:12.048Z,61.53
2022-11-27T09:43:45.968Z,50.40
2022-11-27T09:46:17.671Z,51.72
2022-11-27T09:48:48.660Z,46.17
2022-11-27T09:51:25.895Z,57.22
2022-11-27T09:54:02.628Z,55.97
2022-11-27T09:56:30.761Z,55.03
2022-11-27T09:58:59.781Z,52.85
2022-11-27T10:01:36.482Z,56.25
2022-11-27T10:04:15.827Z,55.65
2022-11-27T10:07:05.530Z,52.03
2022-11-27T10:09:39.336Z,61.47
2022-11-27T10:12:42.238Z,80.00
2022-11-27T10:15:16.335Z,60.05
2022-11-27T10:17:52.145Z,43.63
2022-11-27T10:20:29.751Z,41.90
2022-11-27T10:23:02.159Z,44.27
2022-11-27T10:25:38.778Z,42.13
2022-11-27T10:28:18.290Z,47.40
2022-11-27T10:31:00.863Z,47.80
2022-11-27T10:33:38.828Z,45.72
2022-11-27T10:36:14.119Z,52.03
2022-11-27T10:38:42.061Z,44.85
2022-11-27T10:41:12.140Z,49.15
2022-11-27T10:43:48.865Z,47.90
2022-11-27T10:46:23.141Z,50.03
2022-11-27T10:48:50.871Z,48.20
2022-11-27T10:51:21.585Z,48.83
2022-11-27T10:53:52.744Z,58.28
2022-11-27T10:56:50.029Z,58.95
2022-11-27T10:59:27.693Z,58.45
2022-11-27T11:02:00.998Z,45.97
2022-11-27T11:04:38.879Z,50.53
2022-11-27T11:07:24.767Z,51.90
2022-11-27T11:09:54.358Z,55.05
2022-11-27T11:12:23.605Z,43.53
2022-11-27T11:14:56.082Z,46.63
2022-11-27T11:17:28.540Z,45.92
2022-11-27T11:19:56.120Z,47.03
2022-11-27T11:22:24.603Z,52.62
2022-11-27T11:24:53.451Z,48.50
2022-11-27T11:27:25.600Z,47.27
2022-11-27T11:29:55.615Z,50.20
2022-11-27T11:32:25.793Z,51.17
2022-11-27T11:35:10.926Z,52.72
2022-11-27T11:37:40.101Z,69.18
2022-11-27T11:40:16.216Z,55.90
2022-11-27T11:42:54.100Z,55.25
2022-11-27T11:45:22.828Z,57.60
2022-11-27T11:47:58.668Z,51.45
2022-11-27T11:50:43.764Z,55.50
2022-11-27T11:53:45.433Z,59.70
2022-11-27T11:56:32.348Z,56.70
2022-11-27T11:59:25.111Z,55.85
2022-11-27T12:02:02.036Z,55.80
2022-11-27T12:04:32.577Z,59.05
2022-11-27T12:07:28.008Z,60.97
2022-11-27T12:10:05.305Z,58.90
2022-11-27T12:12:44.218Z,53.75
2022-11-27T12:15:21.606Z,48.60
2022-11-27T12:18:01.391Z,50.83
2022-11-27T12:20:46.566Z,58.57
2022-11-27T12:23:23.237Z,55.50
2022-11-27T12:26:00.663Z,55.15
2022-11-27T12:28:53.234Z,51.37
2022-11-27T12:31:49.891Z,91.70
2022-11-27T12:34:43.108Z,57.23
2022-11-27T12:37:24.206Z,88.50
2022-11-27T12:40:14.489Z,57.75
2022-11-27T12:42:57.925Z,46.15
2022-11-27T12:45:29.675Z,50.38
2022-11-27T12:48:16.235Z,47.90
2022-11-27T12:51:16.909Z,50.38
2022-11-27T12:53:56.262Z,47.83
2022-11-27T12:56:35.608Z,55.67
2022-11-27T12:59:28.118Z,52.03
2022-11-27T13:02:15.820Z,49.53
2022-11-27T13:04:47.256Z,57.75
2022-11-27T13:07:23.004Z,49.83
2022-11-27T13:10:32.922Z,51.63
2022-11-27T13:13:06.871Z,59.65
2022-11-27T13:15:48.011Z,57.93
2022-11-27T13:18:30.986Z,57.62
2022-11-27T13:21:04.731Z,69.72
2022-11-27T13:23:33.153Z,52.33
2022-11-27T13:26:05.148Z,42.13
2022-11-27T13:28:55.499Z,43.57
2022-11-27T13:31:25.699Z,53.22
2022-11-27T13:33:59.090Z,50.70
2022-11-27T13:36:42.045Z,43.97
2022-11-27T13:39:24.065Z,37.75
2022-11-27T13:42:16.749Z,34.83
2022-11-27T13:44:52.689Z,38.67
2022-11-27T13:47:22.619Z,37.72
2022-11-27T13:50:02.494Z,41.20
2022-11-27T13:52:30.714Z,41.50
2022-11-27T13:55:00.273Z,43.47
2022-11-27T13:57:29.024Z,40.10
2022-11-27T14:00:05.547Z,39.13
2022-11-27T14:02:46.729Z,34.25
2022-11-27T14:05:18.107Z,41.63
2022-11-27T14:07:50.921Z,53.07
2022-11-27T14:10:21.799Z,41.47
2022-11-27T14:13:01.749Z,44.65
2022-11-27T14:15:31.183Z,37.22
2022-11-27T14:18:19.890Z,35.13
2022-11-27T14:20:58.487Z,32.97
2022-11-27T14:23:28.364Z,34.65
2022-11-27T14:26:15.228Z,35.30
2022-11-27T14:28:46.236Z,41.47
2022-11-27T14:31:30.736Z,33.33
2022-11-27T14:34:14.732Z,34.50
2022-11-27T14:36:44.178Z,29.45
2022-11-27T14:39:22.286Z,29.92
2022-11-27T14:41:59.892Z,34.38
2022-11-27T14:44:27.949Z,35.88
2022-11-27T14:46:57.568Z,39.80
2022-11-27T14:49:27.081Z,46.70
2022-11-27T14:51:58.168Z,48.67
2022-11-27T14:54:29.942Z,43.87
2022-11-27T14:56:59.029Z,44.05
2022-11-27T14:59:26.858Z,49.80
2022-11-27T15:02:15.935Z,46.20
2022-11-27T15:04:45.008Z,49.42
2022-11-27T15:07:18.016Z,39.05
2022-11-27T15:09:54.422Z,40.03
2022-11-27T15:12:30.220Z,44.93
2022-11-27T15:15:14.214Z,38.10
2022-11-27T15:17:45.582Z,34.88
2022-11-27T15:20:25.891Z,46.13
2022-11-27T15:22:55.689Z,36.80
2022-11-27T15:25:40.044Z,40.73
2022-11-27T15:28:37.796Z,33.22
2022-11-27T15:31:24.876Z,40.08
2022-11-27T15:34:18.457Z,41.53
2022-11-27T15:36:52.150Z,40.85
2022-11-27T15:39:45.883Z,30.67
2022-11-27T15:42:14.817Z,43.60
2022-11-27T15:44:42.674Z,46.40
2022-11-27T15:47:23.465Z,48.85
2022-11-27T15:49:52.187Z,54.60
2022-11-27T15:52:19.898Z,69.07
2022-11-27T15:54:47.544Z,49.22
2022-11-27T15:57:15.212Z,39.20
2022-11-27T15:59:43.858Z,37.47
2022-11-27T16:02:17.460Z,37.33
2022-11-27T16:04:46.190Z,53.87
2022-11-27T16:07:13.727Z,46.45
2022-11-27T16:09:41.890Z,40.67
2022-11-27T16:12:09.825Z,41.28
2022-11-27T16:14:37.458Z,40.80
2022-11-27T16:17:05.102Z,34.93
2022-11-27T16:19:32.865Z,44.85
2022-11-27T16:22:01.199Z,41.60
2022-11-27T16:24:28.729Z,65.25
2022-11-27T16:26:56.535Z,54.95
2022-11-27T16:29:23.974Z,61.17
2022-11-27T16:31:51.849Z,66.80
2022-11-27T16:34:19.861Z,57.60
2022-11-27T16:36:48.402Z,49.58
2022-11-27T16:39:17.144Z,47.83
2022-11-27T16:41:45.362Z,42.30
2022-11-27T16:44:15.071Z,41.25
2022-11-27T16:46:44.581Z,40.28
2022-11-27T16:49:13.355Z,40.83
2022-11-27T16:51:41.813Z,42.67
2022-11-27T16:54:11.942Z,41.23
2022-11-27T16:56:40.945Z,42.17
2022-11-27T16:59:10.397Z,44.92
2022-11-27T17:01:41.175Z,35.03
2022-11-27T17:04:16.788Z,38.33
2022-11-27T17:06:45.086Z,60.37
2022-11-27T17:09:13.375Z,40.35
2022-11-27T17:11:43.927Z,36.40
2022-11-27T17:14:12.026Z,42.22
2022-11-27T17:16:41.666Z,37.90
2022-11-27T17:19:13.891Z,40.33
2022-11-27T17:21:42.118Z,41.63
2022-11-27T17:24:16.471Z,36.95
2022-11-27T17:26:45.340Z,37.85
2022-11-27T17:29:15.415Z,37.35
2022-11-27T17:31:44.278Z,61.63
2022-11-27T17:34:14.759Z,87.25
2022-11-27T17:36:44.693Z,78.57
2022-11-27T17:39:15.305Z,58.00
2022-11-27T17:41:46.839Z,43.90
2022-11-27T17:44:14.848Z,49.03
2022-11-27T17:46:45.038Z,61.03
2022-11-27T17:49:13.047Z,82.85
2022-11-27T17:51:41.484Z,72.18
2022-11-27T17:54:11.109Z,79.68
2022-11-27T17:56:39.417Z,78.50
2022-11-27T17:59:09.699Z,87.93
2022-11-27T18:01:37.872Z,84.03
2022-11-27T18:04:06.319Z,90.18
2022-11-27T18:06:36.073Z,93.43
2022-11-27T18:09:04.705Z,85.93
2022-11-27T18:11:34.061Z,62.62
2022-11-27T18:14:01.912Z,85.32
2022-11-27T18:16:33.045Z,83.95
2022-11-27T18:19:07.271Z,84.62
2022-11-27T18:21:35.631Z,115.10
2022-11-27T18:27:10.558Z,108.97
2022-11-27T18:29:42.053Z,92.00
2022-11-27T18:32:11.313Z,117.43
2022-11-27T18:34:39.874Z,82.87
2022-11-27T18:37:07.737Z,61.20
2022-11-27T18:39:36.142Z,61.60
2022-11-27T18:42:05.163Z,49.63
2022-11-27T18:44:37.347Z,41.50
2022-11-27T18:47:11.463Z,45.43
2022-11-27T18:49:40.744Z,48.70
2022-11-27T18:52:09.310Z,42.15
2022-11-27T18:54:37.589Z,60.17
2022-11-27T18:57:07.117Z,62.65
2022-11-27T18:59:35.411Z,81.33
2022-11-27T19:02:04.493Z,62.28
2022-11-27T19:04:35.886Z,50.45
2022-11-27T19:07:04.016Z,203.23
2022-11-27T19:09:31.625Z,133.10
2022-11-27T19:11:59.363Z,172.10
2022-11-27T19:14:27.817Z,99.95
2022-11-27T19:16:56.468Z,61.78
2022-11-27T19:20:04.462Z,57.33
2022-11-27T19:22:14.302Z,41.90
2022-11-27T19:24:42.392Z,43.47
2022-11-27T19:27:10.638Z,43.87
2022-11-27T19:29:38.774Z,44.95
2022-11-27T19:32:06.708Z,47.97
2022-11-27T19:34:34.884Z,47.53
2022-11-27T19:37:03.013Z,49.43
2022-11-27T19:39:30.788Z,47.30
2022-11-27T19:41:59.192Z,50.92
2022-11-27T19:44:27.278Z,44.97
2022-11-27T19:46:54.945Z,44.80
2022-11-27T19:49:23.899Z,55.10
2022-11-27T19:51:52.098Z,57.28
2022-11-27T19:54:21.811Z,57.53
2022-11-27T19:56:51.551Z,60.33
2022-11-27T19:59:24.416Z,65.07
2022-11-27T20:01:54.149Z,57.03
2022-11-27T20:04:26.303Z,57.22
2022-11-27T20:06:54.164Z,50.83
2022-11-27T20:09:22.349Z,70.45
2022-11-27T20:11:49.936Z,75.95
2022-11-27T20:14:19.493Z,94.70
2022-11-27T20:16:47.969Z,80.32
2022-11-27T20:19:16.104Z,53.38
2022-11-27T20:21:45.562Z,44.33
2022-11-27T20:24:15.122Z,42.55
2022-11-27T20:26:43.452Z,40.53
2022-11-27T20:29:16.448Z,40.42
2022-11-27T20:31:45.304Z,46.42
2022-11-27T20:34:21.865Z,45.75
2022-11-27T20:36:50.271Z,47.58
2022-11-27T20:39:21.672Z,50.00
2022-11-27T20:41:51.886Z,53.25
2022-11-27T20:44:20.355Z,52.62
2022-11-27T20:46:49.073Z,51.00
2022-11-27T20:49:18.189Z,48.38
2022-11-27T20:51:49.003Z,47.07
2022-11-27T20:54:19.067Z,47.22
2022-11-27T20:56:50.244Z,46.37
2022-11-27T20:59:19.228Z,49.58
2022-11-27T21:01:47.295Z,50.22
2022-11-27T21:04:22.363Z,56.17
2022-11-27T21:06:50.938Z,57.78
2022-11-27T21:09:20.710Z,58.90
2022-11-27T21:11:48.752Z,67.43
2022-11-27T21:14:17.178Z,73.37
2022-11-27T21:16:48.589Z,72.00
2022-11-27T21:19:20.085Z,72.57
2022-11-27T21:21:48.568Z,61.45
2022-11-27T21:24:16.348Z,57.75
2022-11-27T21:26:45.064Z,57.62
2022-11-27T21:29:14.977Z,59.47
2022-11-27T21:31:46.781Z,55.90
2022-11-27T21:34:16.012Z,55.85
2022-11-27T21:36:44.491Z,65.07
2022-11-27T21:39:13.967Z,83.65
2022-11-27T21:41:41.804Z,80.73
2022-11-27T21:44:09.935Z,81.63
2022-11-27T21:46:38.352Z,104.00
2022-11-27T21:49:06.320Z,105.87
2022-11-27T21:51:33.825Z,88.53
2022-11-27T21:54:06.545Z,68.27
2022-11-27T21:56:37.654Z,69.05
2022-11-27T21:59:05.902Z,68.40
2022-11-27T22:01:34.097Z,65.18
2022-11-27T22:04:02.705Z,61.08
2022-11-27T22:06:35.032Z,60.13
2022-11-27T22:09:03.682Z,60.00
2022-11-27T22:11:31.419Z,64.45
2022-11-27T22:14:07.347Z,63.33
2022-11-27T22:16:44.149Z,60.78
2022-11-27T22:19:14.337Z,64.23
2022-11-27T22:21:43.475Z,62.60
2022-11-27T22:24:15.046Z,63.17
2022-11-27T22:26:47.760Z,70.80
2022-11-27T22:29:15.247Z,63.33
2022-11-27T22:31:42.909Z,58.47
2022-11-27T22:34:10.824Z,62.58
2022-11-27T22:36:38.785Z,55.42
2022-11-27T22:39:07.585Z,56.78
2022-11-27T22:41:36.935Z,52.08
2022-11-27T22:44:06.257Z,91.20
2022-11-27T22:46:35.681Z,70.82
2022-11-27T22:49:05.864Z,67.07
2022-11-27T22:51:35.780Z,69.87
2022-11-27T22:54:04.901Z,80.38
2022-11-27T22:56:33.905Z,65.73
2022-11-27T22:59:30.416Z,85.87
2022-11-27T23:01:50.117Z,70.25
2022-11-27T23:04:17.808Z,70.28
2022-11-27T23:06:48.269Z,58.80
2022-11-27T23:09:18.200Z,65.00
2022-11-27T23:11:46.124Z,79.03
2022-11-27T23:14:13.547Z,72.37
2022-11-27T23:16:41.485Z,73.20
2022-11-27T23:19:10.046Z,67.15
2022-11-27T23:21:39.086Z,76.30
2022-11-27T23:24:09.666Z,61.22
2022-11-27T23:26:37.288Z,67.10
2022-11-27T23:29:05.112Z,55.33
2022-11-27T23:31:35.379Z,62.50
2022-11-27T23:34:07.595Z,59.57
2022-11-27T23:36:36.357Z,52.50
2022-11-27T23:39:06.565Z,53.97
2022-11-27T23:41:34.135Z,59.13
2022-11-27T23:44:02.322Z,60.15
2022-11-27T23:46:30.918Z,53.33
2022-11-27T23:48:59.797Z,55.78
2022-11-27T23:51:30.184Z,52.05
2022-11-27T23:53:58.260Z,64.78
2022-11-27T23:56:28.702Z,57.90
2022-11-27T23:58:57.451Z,57.03
